sensor_id;sensor_type;location;lat;lon;timestamp;pressure;altitude;pressure_sealevel;temperature;humidity
36932;BME280;22847;42.654;23.370;2023-01-28T00:01:46;94037.34;;;4.11;70.11
36932;BME280;22847;42.654;23.370;2023-01-28T00:04:12;94046.84;;;4.42;69.70
36932;BME280;22847;42.654;23.370;2023-01-28T00:06:37;93773.03;;;2.89;70.22
36932;BME280;22847;42.654;23.370;2023-01-28T00:09:03;93953.47;;;3.95;71.51
36932;BME280;22847;42.654;23.370;2023-01-28T00:11:28;93985.47;;;4.25;69.20
36932;BME280;22847;42.654;23.370;2023-01-28T00:13:54;94056.78;;;4.58;68.88
36932;BME280;22847;42.654;23.370;2023-01-28T00:16:20;94017.19;;;4.04;70.72
36932;BME280;22847;42.654;23.370;2023-01-28T00:18:47;94048.72;;;4.08;69.96
36932;BME280;22847;42.654;23.370;2023-01-28T00:21:14;94094.50;;;3.73;69.76
36932;BME280;22847;42.654;23.370;2023-01-28T00:23:41;94008.59;;;2.94;70.80
36932;BME280;22847;42.654;23.370;2023-01-28T00:26:12;94067.66;;;3.31;73.33
36932;BME280;22847;42.654;23.370;2023-01-28T00:28:38;93992.81;;;3.21;72.08
36932;BME280;22847;42.654;23.370;2023-01-28T00:31:08;94057.09;;;3.11;71.85
36932;BME280;22847;42.654;23.370;2023-01-28T00:33:35;93783.47;;;1.76;73.54
36932;BME280;22847;42.654;23.370;2023-01-28T00:36:01;94083.78;;;3.99;72.74
36932;BME280;22847;42.654;23.370;2023-01-28T00:38:27;93854.16;;;2.83;72.12
36932;BME280;22847;42.654;23.370;2023-01-28T00:40:53;94080.66;;;4.28;70.90
36932;BME280;22847;42.654;23.370;2023-01-28T00:43:19;94041.25;;;4.05;69.43
36932;BME280;22847;42.654;23.370;2023-01-28T00:45:44;94093.81;;;4.36;69.68
36932;BME280;22847;42.654;23.370;2023-01-28T00:48:10;93793.69;;;2.22;70.00
36932;BME280;22847;42.654;23.370;2023-01-28T00:50:35;94133.28;;;3.60;71.25
36932;BME280;22847;42.654;23.370;2023-01-28T00:53:01;93914.41;;;2.81;70.62
36932;BME280;22847;42.654;23.370;2023-01-28T00:55:27;94104.53;;;3.42;69.96
36932;BME280;22847;42.654;23.370;2023-01-28T00:57:52;94025.94;;;3.26;70.11
36932;BME280;22847;42.654;23.370;2023-01-28T01:00:18;94088.72;;;3.25;72.68
36932;BME280;22847;42.654;23.370;2023-01-28T01:02:50;94089.25;;;2.95;73.44
36932;BME280;22847;42.654;23.370;2023-01-28T01:05:16;93903.19;;;2.02;72.44
36932;BME280;22847;42.654;23.370;2023-01-28T01:07:42;93977.97;;;2.34;73.02
36932;BME280;22847;42.654;23.370;2023-01-28T01:10:10;94077.94;;;3.31;71.50
36932;BME280;22847;42.654;23.370;2023-01-28T01:12:36;94090.50;;;3.46;70.82
36932;BME280;22847;42.654;23.370;2023-01-28T01:15:02;94083.38;;;3.50;70.07
36932;BME280;22847;42.654;23.370;2023-01-28T01:17:31;94037.88;;;3.15;70.09
36932;BME280;22847;42.654;23.370;2023-01-28T01:19:56;93973.59;;;2.69;70.02
36932;BME280;22847;42.654;23.370;2023-01-28T01:22:22;94090.13;;;3.40;70.38
36932;BME280;22847;42.654;23.370;2023-01-28T01:24:47;94132.50;;;3.25;70.90
36932;BME280;22847;42.654;23.370;2023-01-28T01:27:12;94097.13;;;3.04;71.13
36932;BME280;22847;42.654;23.370;2023-01-28T01:29:38;93863.53;;;1.59;71.36
36932;BME280;22847;42.654;23.370;2023-01-28T01:32:04;94098.03;;;3.03;71.55
36932;BME280;22847;42.654;23.370;2023-01-28T01:34:29;94061.50;;;2.52;72.56
36932;BME280;22847;42.654;23.370;2023-01-28T01:36:54;94097.41;;;3.24;73.68
36932;BME280;22847;42.654;23.370;2023-01-28T01:39:20;94151.25;;;3.38;73.08
36932;BME280;22847;42.654;23.370;2023-01-28T01:41:45;94096.34;;;3.71;72.59
36932;BME280;22847;42.654;23.370;2023-01-28T01:47:13;93922.69;;;2.05;72.98
36932;BME280;22847;42.654;23.370;2023-01-28T01:49:40;93817.03;;;1.86;71.54
36932;BME280;22847;42.654;23.370;2023-01-28T01:52:11;94084.31;;;3.60;71.63
36932;BME280;22847;42.654;23.370;2023-01-28T01:54:38;94093.09;;;3.69;70.21
36932;BME280;22847;42.654;23.370;2023-01-28T01:57:08;94088.28;;;3.53;69.90
36932;BME280;22847;42.654;23.370;2023-01-28T01:59:37;93825.34;;;2.00;69.48
36932;BME280;22847;42.654;23.370;2023-01-28T02:02:06;94037.69;;;3.41;68.86
36932;BME280;22847;42.654;23.370;2023-01-28T02:04:40;94062.22;;;3.11;69.71
36932;BME280;22847;42.654;23.370;2023-01-28T02:07:11;94074.41;;;3.09;70.51
36932;BME280;22847;42.654;23.370;2023-01-28T02:09:37;93837.13;;;1.92;69.51
36932;BME280;22847;42.654;23.370;2023-01-28T02:14:44;94104.31;;;3.56;69.82
36932;BME280;22847;42.654;23.370;2023-01-28T02:17:11;94109.94;;;3.50;70.01
36932;BME280;22847;42.654;23.370;2023-01-28T02:19:45;93891.97;;;1.68;70.73
36932;BME280;22847;42.654;23.370;2023-01-28T02:28:08;94117.94;;;3.01;71.38
36932;BME280;22847;42.654;23.370;2023-01-28T02:31:01;94083.13;;;2.74;71.65
36932;BME280;22847;42.654;23.370;2023-01-28T02:33:35;94127.16;;;2.93;71.48
36932;BME280;22847;42.654;23.370;2023-01-28T02:39:07;94117.81;;;2.92;71.71
36932;BME280;22847;42.654;23.370;2023-01-28T02:41:40;94063.88;;;2.08;73.18
36932;BME280;22847;42.654;23.370;2023-01-28T02:44:07;93969.41;;;1.99;72.07
36932;BME280;22847;42.654;23.370;2023-01-28T02:46:35;94172.19;;;3.22;70.79
36932;BME280;22847;42.654;23.370;2023-01-28T02:49:25;94121.44;;;3.00;70.85
36932;BME280;22847;42.654;23.370;2023-01-28T03:02:41;93969.03;;;2.16;71.02
36932;BME280;22847;42.654;23.370;2023-01-28T03:11:36;94128.34;;;3.00;71.00
36932;BME280;22847;42.654;23.370;2023-01-28T03:14:23;94127.19;;;3.04;70.77
36932;BME280;22847;42.654;23.370;2023-01-28T03:17:13;94110.78;;;2.94;70.65
36932;BME280;22847;42.654;23.370;2023-01-28T03:19:58;93857.94;;;1.30;70.58
36932;BME280;22847;42.654;23.370;2023-01-28T03:22:45;94130.16;;;3.10;70.21
36932;BME280;22847;42.654;23.370;2023-01-28T03:25:33;93831.66;;;1.03;71.13
36932;BME280;22847;42.654;23.370;2023-01-28T03:28:18;93941.53;;;1.58;71.02
36932;BME280;22847;42.654;23.370;2023-01-28T03:33:49;94129.97;;;2.66;71.67
36932;BME280;22847;42.654;23.370;2023-01-28T03:36:33;94160.03;;;2.42;73.40
36932;BME280;22847;42.654;23.370;2023-01-28T03:39:12;93912.09;;;1.51;71.86
36932;BME280;22847;42.654;23.370;2023-01-28T03:41:38;93922.47;;;1.49;71.04
36932;BME280;22847;42.654;23.370;2023-01-28T03:44:03;94046.59;;;1.86;72.63
36932;BME280;22847;42.654;23.370;2023-01-28T03:46:47;94024.97;;;2.12;71.77
36932;BME280;22847;42.654;23.370;2023-01-28T03:49:15;94120.97;;;2.60;71.85
36932;BME280;22847;42.654;23.370;2023-01-28T03:51:40;94139.22;;;2.92;71.09
36932;BME280;22847;42.654;23.370;2023-01-28T03:54:05;94100.13;;;2.87;70.60
36932;BME280;22847;42.654;23.370;2023-01-28T03:56:31;93814.03;;;0.98;70.10
36932;BME280;22847;42.654;23.370;2023-01-28T03:58:58;94179.03;;;2.99;70.55
36932;BME280;22847;42.654;23.370;2023-01-28T04:01:23;93947.72;;;1.79;70.68
36932;BME280;22847;42.654;23.370;2023-01-28T04:03:50;94148.88;;;3.12;70.26
36932;BME280;22847;42.654;23.370;2023-01-28T04:06:15;93873.66;;;1.02;70.90
36932;BME280;22847;42.654;23.370;2023-01-28T04:08:40;94153.25;;;2.64;71.55
36932;BME280;22847;42.654;23.370;2023-01-28T04:11:10;93920.34;;;1.07;71.86
36932;BME280;22847;42.654;23.370;2023-01-28T04:13:44;94087.34;;;2.51;71.02
36932;BME280;22847;42.654;23.370;2023-01-28T04:16:10;94172.38;;;2.73;70.60
36932;BME280;22847;42.654;23.370;2023-01-28T04:18:36;93849.22;;;0.96;71.01
36932;BME280;22847;42.654;23.370;2023-01-28T04:21:01;94066.94;;;1.53;72.33
36932;BME280;22847;42.654;23.370;2023-01-28T04:23:26;94151.94;;;2.59;71.98
36932;BME280;22847;42.654;23.370;2023-01-28T04:25:54;94164.00;;;2.82;71.44
36932;BME280;22847;42.654;23.370;2023-01-28T04:28:19;93873.09;;;1.09;70.60
36932;BME280;22847;42.654;23.370;2023-01-28T04:30:44;94099.66;;;2.58;70.59
36932;BME280;22847;42.654;23.370;2023-01-28T04:33:10;94172.06;;;3.12;70.12
36932;BME280;22847;42.654;23.370;2023-01-28T04:35:35;93881.91;;;1.42;69.53
36932;BME280;22847;42.654;23.370;2023-01-28T04:38:00;94173.47;;;2.82;70.76
36932;BME280;22847;42.654;23.370;2023-01-28T04:40:26;94159.19;;;2.89;70.26
36932;BME280;22847;42.654;23.370;2023-01-28T04:42:55;94116.47;;;2.28;71.31
36932;BME280;22847;42.654;23.370;2023-01-28T04:45:21;94122.59;;;2.14;71.76
36932;BME280;22847;42.654;23.370;2023-01-28T04:47:47;94183.06;;;2.43;71.10
36932;BME280;22847;42.654;23.370;2023-01-28T04:50:12;94184.50;;;2.71;71.19
36932;BME280;22847;42.654;23.370;2023-01-28T04:52:37;94207.84;;;2.57;71.37
36932;BME280;22847;42.654;23.370;2023-01-28T04:55:03;94194.16;;;2.56;72.20
36932;BME280;22847;42.654;23.370;2023-01-28T04:57:29;93978.84;;;1.14;72.60
36932;BME280;22847;42.654;23.370;2023-01-28T04:59:54;94154.88;;;2.18;73.03
36932;BME280;22847;42.654;23.370;2023-01-28T05:02:20;94208.47;;;2.60;72.59
36932;BME280;22847;42.654;23.370;2023-01-28T05:04:45;94137.69;;;2.18;72.92
36932;BME280;22847;42.654;23.370;2023-01-28T05:07:11;94119.09;;;2.15;72.68
36932;BME280;22847;42.654;23.370;2023-01-28T05:09:36;93866.25;;;0.61;72.36
36932;BME280;22847;42.654;23.370;2023-01-28T05:12:02;94194.03;;;2.58;72.77
36932;BME280;22847;42.654;23.370;2023-01-28T05:14:28;94168.50;;;2.31;72.51
36932;BME280;22847;42.654;23.370;2023-01-28T05:16:53;94190.28;;;2.51;72.33
36932;BME280;22847;42.654;23.370;2023-01-28T05:19:19;94252.84;;;2.39;73.66
36932;BME280;22847;42.654;23.370;2023-01-28T05:21:44;94222.03;;;2.62;73.03
36932;BME280;22847;42.654;23.370;2023-01-28T05:24:09;94151.97;;;2.22;72.55
36932;BME280;22847;42.654;23.370;2023-01-28T05:26:35;94176.88;;;2.22;73.24
36932;BME280;22847;42.654;23.370;2023-01-28T05:29:01;94206.53;;;2.51;72.31
36932;BME280;22847;42.654;23.370;2023-01-28T05:31:27;94276.47;;;2.69;72.40
36932;BME280;22847;42.654;23.370;2023-01-28T05:33:52;94102.09;;;1.89;71.69
36932;BME280;22847;42.654;23.370;2023-01-28T05:36:18;94225.13;;;2.91;71.14
36932;BME280;22847;42.654;23.370;2023-01-28T05:38:43;94258.00;;;2.88;71.22
36932;BME280;22847;42.654;23.370;2023-01-28T05:41:08;94023.75;;;1.58;70.83
36932;BME280;22847;42.654;23.370;2023-01-28T05:43:34;94023.88;;;1.56;70.96
36932;BME280;22847;42.654;23.370;2023-01-28T05:45:59;94204.81;;;2.39;70.79
36932;BME280;22847;42.654;23.370;2023-01-28T05:48:24;94222.16;;;2.61;71.25
36932;BME280;22847;42.654;23.370;2023-01-28T05:50:50;93950.66;;;1.02;70.69
36932;BME280;22847;42.654;23.370;2023-01-28T05:53:15;94235.22;;;2.58;70.32
36932;BME280;22847;42.654;23.370;2023-01-28T05:55:41;94139.16;;;2.10;70.03
36932;BME280;22847;42.654;23.370;2023-01-28T05:58:06;94234.16;;;2.97;70.07
36932;BME280;22847;42.654;23.370;2023-01-28T06:00:32;94236.59;;;2.98;69.83
36932;BME280;22847;42.654;23.370;2023-01-28T06:02:57;94017.81;;;1.45;69.41
36932;BME280;22847;42.654;23.370;2023-01-28T06:05:23;94277.81;;;3.22;69.00
36932;BME280;22847;42.654;23.370;2023-01-28T06:07:49;94265.06;;;2.97;69.81
36932;BME280;22847;42.654;23.370;2023-01-28T06:10:15;94202.00;;;2.55;69.69
36932;BME280;22847;42.654;23.370;2023-01-28T06:12:43;94136.53;;;2.22;69.09
36932;BME280;22847;42.654;23.370;2023-01-28T06:15:09;94161.44;;;2.22;69.90
36932;BME280;22847;42.654;23.370;2023-01-28T06:17:35;94276.44;;;3.05;69.55
36932;BME280;22847;42.654;23.370;2023-01-28T06:20:00;94316.66;;;2.95;70.17
36932;BME280;22847;42.654;23.370;2023-01-28T06:22:25;94293.09;;;3.12;69.27
36932;BME280;22847;42.654;23.370;2023-01-28T06:24:51;94275.28;;;2.86;69.42
36932;BME280;22847;42.654;23.370;2023-01-28T06:27:16;94286.84;;;3.04;69.47
36932;BME280;22847;42.654;23.370;2023-01-28T06:29:42;94279.72;;;3.07;69.16
36932;BME280;22847;42.654;23.370;2023-01-28T06:32:07;94287.28;;;3.22;68.98
36932;BME280;22847;42.654;23.370;2023-01-28T06:34:32;94319.47;;;2.92;69.05
36932;BME280;22847;42.654;23.370;2023-01-28T06:36:58;94243.44;;;2.63;69.34
36932;BME280;22847;42.654;23.370;2023-01-28T06:39:23;94157.72;;;1.26;71.58
36932;BME280;22847;42.654;23.370;2023-01-28T06:41:51;94255.56;;;2.12;71.94
36932;BME280;22847;42.654;23.370;2023-01-28T06:44:16;94298.31;;;2.63;70.56
36932;BME280;22847;42.654;23.370;2023-01-28T06:46:41;94304.63;;;2.21;72.03
36932;BME280;22847;42.654;23.370;2023-01-28T06:49:07;94351.13;;;2.18;71.98
36932;BME280;22847;42.654;23.370;2023-01-28T06:51:32;94311.22;;;2.38;72.47
36932;BME280;22847;42.654;23.370;2023-01-28T06:53:58;94354.09;;;2.63;71.46
36932;BME280;22847;42.654;23.370;2023-01-28T06:56:23;94267.00;;;2.57;70.49
36932;BME280;22847;42.654;23.370;2023-01-28T06:58:49;94067.19;;;1.12;70.25
36932;BME280;22847;42.654;23.370;2023-01-28T07:01:14;94324.78;;;2.40;71.87
36932;BME280;22847;42.654;23.370;2023-01-28T07:03:39;94275.53;;;2.34;71.42
36932;BME280;22847;42.654;23.370;2023-01-28T07:06:05;94316.72;;;2.70;71.13
36932;BME280;22847;42.654;23.370;2023-01-28T07:08:31;94327.66;;;2.97;70.10
36932;BME280;22847;42.654;23.370;2023-01-28T07:10:57;94032.47;;;1.06;69.59
36932;BME280;22847;42.654;23.370;2023-01-28T07:13:23;94244.28;;;2.02;70.54
36932;BME280;22847;42.654;23.370;2023-01-28T07:15:49;94345.88;;;2.58;71.12
36932;BME280;22847;42.654;23.370;2023-01-28T07:18:14;94342.81;;;2.28;72.33
36932;BME280;22847;42.654;23.370;2023-01-28T07:20:40;94313.16;;;2.35;71.45
36932;BME280;22847;42.654;23.370;2023-01-28T07:23:06;94285.00;;;2.08;71.98
36932;BME280;22847;42.654;23.370;2023-01-28T07:25:31;94298.16;;;1.65;71.21
36932;BME280;22847;42.654;23.370;2023-01-28T07:27:56;94296.78;;;2.48;70.61
36932;BME280;22847;42.654;23.370;2023-01-28T07:30:22;94242.22;;;2.19;70.33
36932;BME280;22847;42.654;23.370;2023-01-28T07:32:57;94367.34;;;2.82;70.03
36932;BME280;22847;42.654;23.370;2023-01-28T07:35:24;94143.16;;;1.65;70.08
36932;BME280;22847;42.654;23.370;2023-01-28T07:37:54;94422.13;;;2.84;70.34
36932;BME280;22847;42.654;23.370;2023-01-28T07:40:20;94378.97;;;3.00;70.40
36932;BME280;22847;42.654;23.370;2023-01-28T07:42:46;94373.63;;;2.91;70.02
36932;BME280;22847;42.654;23.370;2023-01-28T07:45:12;94087.50;;;1.02;70.43
36932;BME280;22847;42.654;23.370;2023-01-28T07:47:37;94068.19;;;0.84;70.12
36932;BME280;22847;42.654;23.370;2023-01-28T07:50:03;94115.91;;;0.86;71.58
36932;BME280;22847;42.654;23.370;2023-01-28T07:52:28;94379.34;;;2.45;72.11
36932;BME280;22847;42.654;23.370;2023-01-28T07:54:56;94377.25;;;2.76;71.25
36932;BME280;22847;42.654;23.370;2023-01-28T07:57:23;94099.38;;;0.78;72.07
36932;BME280;22847;42.654;23.370;2023-01-28T07:59:49;94351.94;;;2.57;70.88
36932;BME280;22847;42.654;23.370;2023-01-28T08:02:15;94430.16;;;2.80;70.03
36932;BME280;22847;42.654;23.370;2023-01-28T08:04:41;94324.38;;;2.46;70.48
36932;BME280;22847;42.654;23.370;2023-01-28T08:07:07;94160.63;;;1.34;70.10
36932;BME280;22847;42.654;23.370;2023-01-28T08:09:33;94391.72;;;3.02;69.53
36932;BME280;22847;42.654;23.370;2023-01-28T08:12:00;94431.72;;;2.69;70.54
36932;BME280;22847;42.654;23.370;2023-01-28T08:14:26;94443.97;;;2.91;69.53
36932;BME280;22847;42.654;23.370;2023-01-28T08:16:52;94398.47;;;2.79;69.83
36932;BME280;22847;42.654;23.370;2023-01-28T08:19:17;94447.06;;;2.96;69.98
36932;BME280;22847;42.654;23.370;2023-01-28T08:21:46;94404.88;;;3.23;69.09
36932;BME280;22847;42.654;23.370;2023-01-28T08:24:12;94390.50;;;2.95;68.81
36932;BME280;22847;42.654;23.370;2023-01-28T08:26:37;94146.06;;;1.35;69.38
36932;BME280;22847;42.654;23.370;2023-01-28T08:29:02;94401.78;;;3.18;69.34
36932;BME280;22847;42.654;23.370;2023-01-28T08:31:28;94377.88;;;3.15;68.59
36932;BME280;22847;42.654;23.370;2023-01-28T08:33:53;94397.63;;;3.51;67.73
36932;BME280;22847;42.654;23.370;2023-01-28T08:36:19;94362.97;;;3.08;68.00
36932;BME280;22847;42.654;23.370;2023-01-28T08:38:44;94367.88;;;3.24;67.95
36932;BME280;22847;42.654;23.370;2023-01-28T08:41:10;94142.13;;;1.80;68.04
36932;BME280;22847;42.654;23.370;2023-01-28T08:43:35;94402.94;;;3.50;67.48
36932;BME280;22847;42.654;23.370;2023-01-28T08:46:00;94272.59;;;2.51;68.58
36932;BME280;22847;42.654;23.370;2023-01-28T08:48:26;94382.69;;;2.84;68.16
36932;BME280;22847;42.654;23.370;2023-01-28T08:50:51;94442.41;;;3.38;68.57
36932;BME280;22847;42.654;23.370;2023-01-28T08:53:18;94386.72;;;3.24;67.99
36932;BME280;22847;42.654;23.370;2023-01-28T08:55:45;94390.13;;;3.48;67.42
36932;BME280;22847;42.654;23.370;2023-01-28T08:58:15;94399.72;;;3.70;67.13
36932;BME280;22847;42.654;23.370;2023-01-28T09:00:41;94372.75;;;3.39;67.29
36932;BME280;22847;42.654;23.370;2023-01-28T09:03:07;94311.25;;;3.35;66.76
36932;BME280;22847;42.654;23.370;2023-01-28T09:05:34;94406.31;;;3.74;66.86
36932;BME280;22847;42.654;23.370;2023-01-28T09:08:01;94203.50;;;2.57;66.58
36932;BME280;22847;42.654;23.370;2023-01-28T09:10:27;94407.28;;;3.60;67.01
36932;BME280;22847;42.654;23.370;2023-01-28T09:12:53;94148.25;;;1.90;67.08
36932;BME280;22847;42.654;23.370;2023-01-28T09:15:18;94425.25;;;3.62;66.76
36932;BME280;22847;42.654;23.370;2023-01-28T09:17:43;94413.53;;;4.17;65.72
36932;BME280;22847;42.654;23.370;2023-01-28T09:20:09;94340.69;;;3.78;64.99
36932;BME280;22847;42.654;23.370;2023-01-28T09:22:36;94441.00;;;4.29;64.77
36932;BME280;22847;42.654;23.370;2023-01-28T09:25:01;94436.50;;;4.20;64.95
36932;BME280;22847;42.654;23.370;2023-01-28T09:27:27;94451.31;;;4.29;64.91
36932;BME280;22847;42.654;23.370;2023-01-28T09:29:52;94342.34;;;3.79;65.56
36932;BME280;22847;42.654;23.370;2023-01-28T09:32:18;94395.47;;;4.17;64.83
36932;BME280;22847;42.654;23.370;2023-01-28T09:34:43;94455.97;;;4.47;65.69
36932;BME280;22847;42.654;23.370;2023-01-28T09:37:10;94449.63;;;4.40;65.25
36932;BME280;22847;42.654;23.370;2023-01-28T09:39:36;94408.56;;;4.48;65.40
36932;BME280;22847;42.654;23.370;2023-01-28T09:47:46;94407.69;;;4.37;65.06
36932;BME280;22847;42.654;23.370;2023-01-28T09:50:18;94371.41;;;4.16;65.44
36932;BME280;22847;42.654;23.370;2023-01-28T09:52:45;93984.63;;;1.78;64.82
36932;BME280;22847;42.654;23.370;2023-01-28T09:55:24;94414.94;;;4.21;65.63
36932;BME280;22847;42.654;23.370;2023-01-28T09:57:54;94393.25;;;3.88;65.83
36932;BME280;22847;42.654;23.370;2023-01-28T10:00:25;94410.00;;;4.18;66.22
36932;BME280;22847;42.654;23.370;2023-01-28T10:11:09;94403.53;;;4.69;64.99
36932;BME280;22847;42.654;23.370;2023-01-28T10:13:42;94397.56;;;4.58;64.94
36932;BME280;22847;42.654;23.370;2023-01-28T10:18:55;94385.97;;;4.28;65.61
36932;BME280;22847;42.654;23.370;2023-01-28T10:24:24;94397.75;;;4.43;65.16
36932;BME280;22847;42.654;23.370;2023-01-28T10:26:55;94395.50;;;4.39;66.27
36932;BME280;22847;42.654;23.370;2023-01-28T10:29:24;94401.16;;;4.55;65.97
36932;BME280;22847;42.654;23.370;2023-01-28T10:31:53;94400.56;;;4.40;65.84
36932;BME280;22847;42.654;23.370;2023-01-28T10:34:20;94397.25;;;3.92;67.26
36932;BME280;22847;42.654;23.370;2023-01-28T10:36:47;94401.72;;;4.01;67.35
36932;BME280;22847;42.654;23.370;2023-01-28T10:39:14;94125.69;;;2.43;66.78
36932;BME280;22847;42.654;23.370;2023-01-28T10:41:40;94426.69;;;4.25;66.11
36932;BME280;22847;42.654;23.370;2023-01-28T10:44:13;94421.22;;;4.05;66.78
36932;BME280;22847;42.654;23.370;2023-01-28T10:46:42;94414.25;;;4.19;67.10
36932;BME280;22847;42.654;23.370;2023-01-28T10:49:25;94306.00;;;3.71;67.04
36932;BME280;22847;42.654;23.370;2023-01-28T10:51:51;94417.34;;;4.00;67.17
36932;BME280;22847;42.654;23.370;2023-01-28T10:54:27;94334.50;;;3.81;67.10
36932;BME280;22847;42.654;23.370;2023-01-28T10:56:56;94207.34;;;2.76;67.22
36932;BME280;22847;42.654;23.370;2023-01-28T11:01:55;94140.47;;;2.87;65.58
36932;BME280;22847;42.654;23.370;2023-01-28T11:04:27;94230.75;;;3.55;65.12
36932;BME280;22847;42.654;23.370;2023-01-28T11:07:19;94402.13;;;4.54;65.10
36932;BME280;22847;42.654;23.370;2023-01-28T11:09:46;94449.63;;;4.52;65.93
36932;BME280;22847;42.654;23.370;2023-01-28T11:12:26;94421.13;;;4.53;65.75
36932;BME280;22847;42.654;23.370;2023-01-28T11:14:57;94394.47;;;4.53;65.44
36932;BME280;22847;42.654;23.370;2023-01-28T11:17:25;94320.88;;;4.25;66.26
36932;BME280;22847;42.654;23.370;2023-01-28T11:19:52;94114.56;;;3.01;64.07
36932;BME280;22847;42.654;23.370;2023-01-28T11:22:32;94431.94;;;4.58;64.88
36932;BME280;22847;42.654;23.370;2023-01-28T11:25:05;94287.59;;;4.22;64.89
36932;BME280;22847;42.654;23.370;2023-01-28T11:27:32;94326.06;;;4.69;63.63
36932;BME280;22847;42.654;23.370;2023-01-28T11:29:59;94213.69;;;3.98;63.13
36932;BME280;22847;42.654;23.370;2023-01-28T11:32:28;94346.50;;;4.83;63.36
36932;BME280;22847;42.654;23.370;2023-01-28T11:34:55;94444.88;;;5.14;62.99
36932;BME280;22847;42.654;23.370;2023-01-28T11:37:28;94373.00;;;4.52;64.41
36932;BME280;22847;42.654;23.370;2023-01-28T11:40:19;94384.41;;;5.05;63.58
36932;BME280;22847;42.654;23.370;2023-01-28T11:42:55;94173.06;;;3.56;63.12
36932;BME280;22847;42.654;23.370;2023-01-28T11:48:22;94339.91;;;4.46;63.74
36932;BME280;22847;42.654;23.370;2023-01-28T11:51:03;94377.59;;;4.93;64.89
36932;BME280;22847;42.654;23.370;2023-01-28T11:53:45;94284.66;;;4.48;62.84
36932;BME280;22847;42.654;23.370;2023-01-28T11:56:28;94424.91;;;5.05;62.92
36932;BME280;22847;42.654;23.370;2023-01-28T12:07:28;94381.84;;;4.94;63.35
36932;BME280;22847;42.654;23.370;2023-01-28T12:12:49;94294.97;;;4.48;61.41
36932;BME280;22847;42.654;23.370;2023-01-28T12:21:06;94380.41;;;5.23;61.95
36932;BME280;22847;42.654;23.370;2023-01-28T12:29:24;94382.72;;;5.37;61.39
36932;BME280;22847;42.654;23.370;2023-01-28T12:38:34;94386.06;;;5.17;62.01
36932;BME280;22847;42.654;23.370;2023-01-28T12:41:17;94382.63;;;5.39;61.94
36932;BME280;22847;42.654;23.370;2023-01-28T12:43:54;94130.22;;;3.88;62.93
36932;BME280;22847;42.654;23.370;2023-01-28T12:49:13;94390.13;;;5.42;61.44
36932;BME280;22847;42.654;23.370;2023-01-28T12:52:02;94444.66;;;5.17;62.19
36932;BME280;22847;42.654;23.370;2023-01-28T12:54:39;94403.53;;;5.25;62.12
36932;BME280;22847;42.654;23.370;2023-01-28T12:57:08;94404.00;;;5.19;61.36
36932;BME280;22847;42.654;23.370;2023-01-28T12:59:49;94396.72;;;5.24;62.04
36932;BME280;22847;42.654;23.370;2023-01-28T13:02:40;94386.38;;;5.24;61.41
36932;BME280;22847;42.654;23.370;2023-01-28T13:05:11;94435.63;;;5.45;62.67
36932;BME280;22847;42.654;23.370;2023-01-28T13:07:44;94412.31;;;5.56;61.56
36932;BME280;22847;42.654;23.370;2023-01-28T13:10:37;94332.41;;;4.99;61.99
36932;BME280;22847;42.654;23.370;2023-01-28T13:13:06;94366.78;;;5.10;61.84
36932;BME280;22847;42.654;23.370;2023-01-28T13:15:39;94453.59;;;5.35;61.86
36932;BME280;22847;42.654;23.370;2023-01-28T13:21:00;94445.50;;;5.17;61.89
36932;BME280;22847;42.654;23.370;2023-01-28T13:23:37;94160.44;;;3.53;62.96
36932;BME280;22847;42.654;23.370;2023-01-28T13:28:34;94140.78;;;3.63;63.39
36932;BME280;22847;42.654;23.370;2023-01-28T13:31:11;94414.22;;;5.31;62.45
36932;BME280;22847;42.654;23.370;2023-01-28T13:34:02;94420.69;;;5.48;61.44
36932;BME280;22847;42.654;23.370;2023-01-28T13:36:43;94475.69;;;5.17;61.46
36932;BME280;22847;42.654;23.370;2023-01-28T13:41:47;94471.66;;;5.02;62.00
36932;BME280;22847;42.654;23.370;2023-01-28T13:44:33;94464.72;;;4.80;63.65
36932;BME280;22847;42.654;23.370;2023-01-28T13:49:36;94436.78;;;5.07;61.97
36932;BME280;22847;42.654;23.370;2023-01-28T13:55:15;94392.97;;;4.83;62.56
36932;BME280;22847;42.654;23.370;2023-01-28T14:03:38;94466.03;;;5.08;62.51
36932;BME280;22847;42.654;23.370;2023-01-28T14:19:38;94484.09;;;4.97;63.87
36932;BME280;22847;42.654;23.370;2023-01-28T14:22:08;94476.56;;;4.82;62.60
36932;BME280;22847;42.654;23.370;2023-01-28T14:24:36;94492.78;;;4.95;62.23
36932;BME280;22847;42.654;23.370;2023-01-28T14:32:33;94488.59;;;4.48;64.46
36932;BME280;22847;42.654;23.370;2023-01-28T14:35:04;94477.69;;;4.56;63.47
36932;BME280;22847;42.654;23.370;2023-01-28T14:37:32;94456.94;;;4.58;65.48
36932;BME280;22847;42.654;23.370;2023-01-28T14:40:00;94218.91;;;2.94;63.18
36932;BME280;22847;42.654;23.370;2023-01-28T14:42:30;94541.72;;;4.40;63.37
36932;BME280;22847;42.654;23.370;2023-01-28T14:58:22;94502.00;;;4.30;64.51
36932;BME280;22847;42.654;23.370;2023-01-28T15:00:54;94512.66;;;4.25;64.65
36932;BME280;22847;42.654;23.370;2023-01-28T15:03:20;94486.75;;;4.27;65.50
36932;BME280;22847;42.654;23.370;2023-01-28T15:05:46;94475.19;;;4.09;64.09
36932;BME280;22847;42.654;23.370;2023-01-28T15:08:21;94501.16;;;4.18;64.39
36932;BME280;22847;42.654;23.370;2023-01-28T15:10:48;94457.44;;;3.80;64.58
36932;BME280;22847;42.654;23.370;2023-01-28T15:13:24;94508.06;;;4.18;65.23
36932;BME280;22847;42.654;23.370;2023-01-28T15:15:51;94570.00;;;4.18;65.08
36932;BME280;22847;42.654;23.370;2023-01-28T15:18:36;94358.50;;;3.23;64.85
36932;BME280;22847;42.654;23.370;2023-01-28T15:21:05;94513.91;;;4.20;63.80
36932;BME280;22847;42.654;23.370;2023-01-28T15:23:33;94310.50;;;2.85;63.69
36932;BME280;22847;42.654;23.370;2023-01-28T15:26:19;94174.56;;;2.06;63.69
36932;BME280;22847;42.654;23.370;2023-01-28T15:28:46;94538.94;;;3.70;64.48
36932;BME280;22847;42.654;23.370;2023-01-28T15:31:26;94513.44;;;3.91;64.04
36932;BME280;22847;42.654;23.370;2023-01-28T15:36:21;94339.22;;;2.92;64.43